createdAt,value
2019-02-17T00:01:03.353Z,4.95
2019-02-17T00:02:04.223Z,4.98
2019-02-17T00:03:56.798Z,4.91
2019-02-17T00:04:56.263Z,4.94
2019-02-17T00:06:49.151Z,4.83
2019-02-17T00:07:49.087Z,4.84
2019-02-17T00:09:44.039Z,4.79
2019-02-17T00:10:43.407Z,4.76
2019-02-17T00:12:35.817Z,4.80
2019-02-17T00:13:35.717Z,4.83
2019-02-17T00:15:30.104Z,4.79
2019-02-17T00:16:30.690Z,4.65
2019-02-17T00:18:23.516Z,4.54
2019-02-17T00:19:23.011Z,4.44
2019-02-17T00:21:16.123Z,4.40
2019-02-17T00:22:16.081Z,4.34
2019-02-17T00:24:09.969Z,4.28
2019-02-17T00:25:09.460Z,4.22
2019-02-17T00:27:02.338Z,4.14
2019-02-17T00:28:02.325Z,4.15
2019-02-17T00:29:55.206Z,4.01
2019-02-17T00:30:56.130Z,3.98
2019-02-17T00:32:48.044Z,3.98
2019-02-17T00:33:48.549Z,3.92
2019-02-17T00:35:42.428Z,3.94
2019-02-17T00:36:42.900Z,3.96
2019-02-17T00:38:34.763Z,3.80
2019-02-17T00:39:34.728Z,3.83
2019-02-17T00:41:28.579Z,3.78
2019-02-17T00:42:27.529Z,3.79
2019-02-17T00:44:20.899Z,3.78
2019-02-17T00:45:21.452Z,3.75
2019-02-17T00:47:15.303Z,3.72
2019-02-17T00:48:14.797Z,3.71
2019-02-17T00:50:08.652Z,3.76
2019-02-17T00:51:07.662Z,3.85
2019-02-17T00:53:01.090Z,3.79
2019-02-17T00:54:00.537Z,3.78
2019-02-17T00:55:55.363Z,3.72
2019-02-17T00:56:55.387Z,3.75
2019-02-17T00:58:47.244Z,3.68
2019-02-17T00:59:48.229Z,3.68
2019-02-17T01:00:48.244Z,3.61
2019-02-17T01:01:48.242Z,3.60
2019-02-17T01:02:47.735Z,3.57
2019-02-17T01:03:48.728Z,3.64
2019-02-17T01:04:48.728Z,3.60
2019-02-17T01:05:47.734Z,3.49
2019-02-17T01:06:48.168Z,3.52
2019-02-17T01:07:47.598Z,3.43
2019-02-17T01:08:47.648Z,3.49
2019-02-17T01:09:48.226Z,3.44
2019-02-17T01:10:47.703Z,3.33
2019-02-17T01:11:47.692Z,3.36
2019-02-17T01:12:47.134Z,3.46
2019-02-17T01:13:47.159Z,3.39
2019-02-17T01:14:47.151Z,3.46
2019-02-17T01:15:47.071Z,3.44
2019-02-17T01:16:47.131Z,3.52
2019-02-17T01:17:48.127Z,3.61
2019-02-17T01:18:46.663Z,3.54
2019-02-17T01:19:46.629Z,3.57
2019-02-17T01:20:46.621Z,3.57
2019-02-17T01:21:46.615Z,3.49
2019-02-17T01:22:46.593Z,3.39
2019-02-17T01:23:46.624Z,3.40
2019-02-17T01:24:46.604Z,3.36
2019-02-17T01:25:46.598Z,3.34
2019-02-17T01:26:46.563Z,3.28
2019-02-17T01:27:46.568Z,3.21
2019-02-17T01:28:46.554Z,3.20
2019-02-17T01:29:46.547Z,3.23
2019-02-17T01:30:46.568Z,3.23
2019-02-17T01:31:46.563Z,3.24
2019-02-17T01:32:46.555Z,3.23
2019-02-17T01:33:46.537Z,3.31
2019-02-17T01:34:46.515Z,3.33
2019-02-17T01:35:46.516Z,3.34
2019-02-17T01:36:46.520Z,3.27
2019-02-17T01:37:46.531Z,3.39
2019-02-17T01:38:46.504Z,3.21
2019-02-17T01:39:46.503Z,3.18
2019-02-17T01:40:46.469Z,3.06
2019-02-17T01:41:46.460Z,3.07
2019-02-17T01:42:46.453Z,3.05
2019-02-17T01:43:46.475Z,2.91
2019-02-17T01:44:46.447Z,2.91
2019-02-17T01:45:46.461Z,2.84
2019-02-17T01:46:46.423Z,2.77
2019-02-17T01:47:46.428Z,2.79
2019-02-17T01:48:46.428Z,2.81
2019-02-17T01:49:46.408Z,2.77
2019-02-17T01:50:46.406Z,2.81
2019-02-17T01:51:46.438Z,2.81
2019-02-17T01:52:48.356Z,2.87
2019-02-17T01:53:46.428Z,2.88
2019-02-17T01:54:46.400Z,2.88
2019-02-17T01:55:47.030Z,2.82
2019-02-17T01:56:46.385Z,2.81
2019-02-17T01:57:46.384Z,2.98
2019-02-17T01:58:46.361Z,3.02
2019-02-17T01:59:46.391Z,3.06
2019-02-17T02:00:46.369Z,3.09
2019-02-17T02:01:46.406Z,3.15
2019-02-17T02:02:46.359Z,3.24
2019-02-17T02:03:46.358Z,3.23
2019-02-17T02:04:46.334Z,3.24
2019-02-17T02:05:46.333Z,3.20
2019-02-17T02:06:46.320Z,3.18
2019-02-17T02:07:46.343Z,3.18
2019-02-17T02:08:46.338Z,3.23
2019-02-17T02:09:46.300Z,3.21
2019-02-17T02:10:46.287Z,3.10
2019-02-17T02:11:46.277Z,3.16
2019-02-17T02:12:46.292Z,3.25
2019-02-17T02:13:46.261Z,3.25
2019-02-17T02:14:46.251Z,3.23
2019-02-17T02:15:46.227Z,3.25
2019-02-17T02:16:46.252Z,3.20
2019-02-17T02:17:46.266Z,3.21
2019-02-17T02:18:46.267Z,3.39
2019-02-17T02:19:46.271Z,3.31
2019-02-17T02:20:46.213Z,3.28
2019-02-17T02:21:46.193Z,3.30
2019-02-17T02:22:46.253Z,3.28
2019-02-17T02:23:46.234Z,3.27
2019-02-17T02:24:46.285Z,3.34
2019-02-17T02:25:46.198Z,3.30
2019-02-17T02:26:46.225Z,3.31
2019-02-17T02:27:46.190Z,3.40
2019-02-17T02:28:46.293Z,3.43
2019-02-17T02:29:46.205Z,3.46
2019-02-17T02:30:46.139Z,3.47
2019-02-17T02:31:47.905Z,3.43
2019-02-17T02:32:46.144Z,3.40
2019-02-17T02:33:46.166Z,3.58
2019-02-17T02:34:46.158Z,3.53
2019-02-17T02:35:46.112Z,3.57
2019-02-17T02:36:46.223Z,3.61
2019-02-17T02:37:46.202Z,3.53
2019-02-17T02:38:46.150Z,3.61
2019-02-17T02:39:46.135Z,3.62
2019-02-17T02:40:46.187Z,3.58
2019-02-17T02:41:46.284Z,3.54
2019-02-17T02:42:48.077Z,3.40
2019-02-17T02:43:47.946Z,3.30
2019-02-17T02:44:48.712Z,3.40
2019-02-17T02:45:46.093Z,3.27
2019-02-17T02:46:46.085Z,3.28
2019-02-17T02:47:46.098Z,3.34
2019-02-17T02:48:46.119Z,3.44
2019-02-17T02:49:46.157Z,3.47
2019-02-17T02:50:46.379Z,3.43
2019-02-17T02:51:48.097Z,3.42
2019-02-17T02:52:46.264Z,3.57
2019-02-17T02:53:46.219Z,3.61
2019-02-17T02:54:49.930Z,3.54
2019-02-17T02:55:45.961Z,3.44
2019-02-17T02:56:45.946Z,3.46
2019-02-17T02:57:45.953Z,3.43
2019-02-17T02:58:46.115Z,3.54
2019-02-17T02:59:52.370Z,3.62
2019-02-17T03:00:45.971Z,3.53
2019-02-17T03:01:45.960Z,3.65
2019-02-17T03:02:46.069Z,3.50
2019-02-17T03:03:46.186Z,3.62
2019-02-17T03:04:45.916Z,3.60
2019-02-17T03:05:45.861Z,3.57
2019-02-17T03:06:46.148Z,3.44
2019-02-17T03:07:47.976Z,3.23
2019-02-17T03:08:45.920Z,3.24
2019-02-17T03:09:45.860Z,3.20
2019-02-17T03:10:45.822Z,3.07
2019-02-17T03:11:45.814Z,3.06
2019-02-17T03:12:45.804Z,3.00
2019-02-17T03:13:45.798Z,2.92
2019-02-17T03:14:45.790Z,2.91
2019-02-17T03:15:45.784Z,2.95
2019-02-17T03:16:45.775Z,2.89
2019-02-17T03:17:45.793Z,2.82
2019-02-17T03:18:45.759Z,2.79
2019-02-17T03:19:45.758Z,2.67
2019-02-17T03:20:45.745Z,2.63
2019-02-17T03:21:45.739Z,2.70
2019-02-17T03:22:45.738Z,2.69
2019-02-17T03:23:45.743Z,2.71
2019-02-17T03:24:45.747Z,2.63
2019-02-17T03:25:45.719Z,2.63
2019-02-17T03:26:45.703Z,2.63
2019-02-17T03:27:45.694Z,2.63
2019-02-17T03:28:45.689Z,2.66
2019-02-17T03:29:45.680Z,2.71
2019-02-17T03:30:45.681Z,2.63
2019-02-17T03:31:45.679Z,2.61
2019-02-17T03:32:45.660Z,2.61
2019-02-17T03:33:45.689Z,2.69
2019-02-17T03:34:45.642Z,2.58
2019-02-17T03:35:45.636Z,2.69
2019-02-17T03:36:45.631Z,2.64
2019-02-17T03:37:45.623Z,2.66
2019-02-17T03:38:45.630Z,2.77
2019-02-17T03:39:45.605Z,2.71
2019-02-17T03:40:45.608Z,2.77
2019-02-17T03:41:45.592Z,2.73
2019-02-17T03:42:45.591Z,2.59
2019-02-17T03:43:45.584Z,2.66
2019-02-17T03:44:45.574Z,2.66
2019-02-17T03:45:45.560Z,2.59
2019-02-17T03:46:45.566Z,2.61
2019-02-17T03:47:45.547Z,2.63
2019-02-17T03:48:45.539Z,2.66
2019-02-17T03:49:45.535Z,2.59
2019-02-17T03:50:45.542Z,2.53
2019-02-17T03:51:45.533Z,2.53
2019-02-17T03:52:45.510Z,2.52
2019-02-17T03:53:45.499Z,2.49
2019-02-17T03:54:45.528Z,2.53
2019-02-17T03:55:45.487Z,2.45
2019-02-17T03:56:45.484Z,2.41
2019-02-17T03:57:45.495Z,2.44
2019-02-17T03:58:45.463Z,2.35
2019-02-17T03:59:45.480Z,2.37
2019-02-17T04:00:45.478Z,2.31
2019-02-17T04:01:45.447Z,2.35
2019-02-17T04:02:45.437Z,2.33
2019-02-17T04:03:45.426Z,2.23
2019-02-17T04:04:45.420Z,2.30
2019-02-17T04:05:45.412Z,2.34
2019-02-17T04:06:45.410Z,2.28
2019-02-17T04:07:45.396Z,2.31
2019-02-17T04:08:45.391Z,2.26
2019-02-17T04:09:45.390Z,2.15
2019-02-17T04:10:45.379Z,2.17
2019-02-17T04:11:45.433Z,2.23
2019-02-17T04:12:45.362Z,2.22
2019-02-17T04:13:45.351Z,2.22
2019-02-17T04:14:45.343Z,2.28
2019-02-17T04:15:45.336Z,2.37
2019-02-17T04:16:45.329Z,2.44
2019-02-17T04:17:45.358Z,2.51
2019-02-17T04:18:45.317Z,2.49
2019-02-17T04:19:45.304Z,2.46
2019-02-17T04:20:45.295Z,2.56
2019-02-17T04:21:45.306Z,2.53
2019-02-17T04:22:45.303Z,2.56
2019-02-17T04:23:45.273Z,2.55
2019-02-17T04:24:45.268Z,2.53
2019-02-17T04:25:45.262Z,2.55
2019-02-17T04:26:45.251Z,2.56
2019-02-17T04:27:45.258Z,2.64
2019-02-17T04:28:45.235Z,2.61
2019-02-17T04:29:45.228Z,2.61
2019-02-17T04:30:45.222Z,2.69
2019-02-17T04:31:45.248Z,2.64
2019-02-17T04:32:45.207Z,2.66
2019-02-17T04:33:45.194Z,2.58
2019-02-17T04:34:45.188Z,2.59
2019-02-17T04:35:45.194Z,2.58
2019-02-17T04:36:45.195Z,2.59
2019-02-17T04:37:45.173Z,2.55
2019-02-17T04:38:45.160Z,2.63
2019-02-17T04:39:45.152Z,2.58
2019-02-17T04:40:45.146Z,2.56
2019-02-17T04:41:45.139Z,2.56
2019-02-17T04:42:45.130Z,2.52
2019-02-17T04:43:45.140Z,2.52
2019-02-17T04:44:45.113Z,2.48
2019-02-17T04:45:45.102Z,2.52
2019-02-17T04:46:45.100Z,2.46
2019-02-17T04:47:45.117Z,2.41
2019-02-17T04:48:45.099Z,2.38
2019-02-17T04:49:45.075Z,2.38
2019-02-17T04:50:45.066Z,2.35
2019-02-17T04:51:45.090Z,2.35
2019-02-17T04:52:45.050Z,2.37
2019-02-17T04:53:45.042Z,2.45
2019-02-17T04:54:45.051Z,2.46
2019-02-17T04:55:45.041Z,2.45
2019-02-17T04:56:45.020Z,2.53
2019-02-17T04:57:45.055Z,2.40
2019-02-17T04:58:45.004Z,2.44
2019-02-17T04:59:45.009Z,2.33
2019-02-17T05:00:44.989Z,2.37
2019-02-17T05:01:44.979Z,2.20
2019-02-17T05:02:44.971Z,2.20
2019-02-17T05:03:44.965Z,2.22
2019-02-17T05:04:44.986Z,2.23
2019-02-17T05:05:44.950Z,2.16
2019-02-17T05:06:44.942Z,2.10
2019-02-17T05:07:44.932Z,2.06
2019-02-17T05:08:44.930Z,2.04
2019-02-17T05:09:44.917Z,2.08
2019-02-17T05:10:44.916Z,2.04
2019-02-17T05:11:44.923Z,1.99
2019-02-17T05:12:44.902Z,2.09
2019-02-17T05:13:44.888Z,2.02
2019-02-17T05:14:44.881Z,2.02
2019-02-17T05:15:44.869Z,2.04
2019-02-17T05:16:44.864Z,2.02
2019-02-17T05:17:44.858Z,2.01
2019-02-17T05:18:44.847Z,2.01
2019-02-17T05:19:44.840Z,2.09
2019-02-17T05:20:44.831Z,2.16
2019-02-17T05:21:44.839Z,2.27
2019-02-17T05:22:44.816Z,2.26
2019-02-17T05:23:44.832Z,2.26
2019-02-17T05:24:44.835Z,2.34
2019-02-17T05:25:44.795Z,2.31
2019-02-17T05:26:44.785Z,2.34
2019-02-17T05:27:44.777Z,2.40
2019-02-17T05:28:44.806Z,2.34
2019-02-17T05:29:44.776Z,2.46
2019-02-17T05:30:52.962Z,2.48
2019-02-17T05:31:44.779Z,2.53
2019-02-17T05:32:44.756Z,2.51
2019-02-17T05:33:44.728Z,2.53
2019-02-17T05:34:44.723Z,2.44
2019-02-17T05:35:44.740Z,2.41
2019-02-17T05:36:44.739Z,2.31
2019-02-17T05:37:44.711Z,2.20
2019-02-17T05:38:44.695Z,2.10
2019-02-17T05:39:44.686Z,2.17
2019-02-17T05:40:44.682Z,2.19
2019-02-17T05:41:44.666Z,2.17
2019-02-17T05:42:44.699Z,2.16
2019-02-17T05:43:44.681Z,2.13
2019-02-17T05:44:44.646Z,2.13
2019-02-17T05:45:44.666Z,2.30
2019-02-17T05:46:44.633Z,2.17
2019-02-17T05:47:44.620Z,2.22
2019-02-17T05:48:44.614Z,2.19
2019-02-17T05:49:44.626Z,2.15
2019-02-17T05:50:44.599Z,2.16
2019-02-17T05:51:44.623Z,2.13
2019-02-17T05:52:44.586Z,2.16
2019-02-17T05:53:44.597Z,2.17
2019-02-17T05:54:44.564Z,2.20
2019-02-17T05:55:44.559Z,2.19
2019-02-17T05:56:44.549Z,2.16
2019-02-17T05:57:44.545Z,2.06
2019-02-17T05:58:44.533Z,2.19
2019-02-17T05:59:44.550Z,2.16
2019-02-17T06:00:44.526Z,2.12
2019-02-17T06:01:44.519Z,2.19
2019-02-17T06:02:44.501Z,2.16
2019-02-17T06:03:44.495Z,2.15
2019-02-17T06:04:44.486Z,2.19
2019-02-17T06:05:44.551Z,2.22
2019-02-17T06:06:44.471Z,2.20
2019-02-17T06:07:44.496Z,2.34
2019-02-17T06:08:44.481Z,2.35
2019-02-17T06:09:44.447Z,2.38
2019-02-17T06:10:44.443Z,2.44
2019-02-17T06:11:44.434Z,2.41
2019-02-17T06:12:44.462Z,2.46
2019-02-17T06:13:44.436Z,2.49
2019-02-17T06:14:53.847Z,2.48
2019-02-17T06:16:37.777Z,2.46
2019-02-17T06:17:37.747Z,2.48
2019-02-17T06:19:32.951Z,2.40
2019-02-17T06:20:31.053Z,2.40
2019-02-17T06:21:30.872Z,2.45
2019-02-17T06:22:30.917Z,2.44
2019-02-17T06:23:31.071Z,2.45
2019-02-17T06:24:30.687Z,2.45
2019-02-17T06:25:32.221Z,2.49
2019-02-17T06:26:30.631Z,2.58
2019-02-17T06:27:30.651Z,2.53
2019-02-17T06:28:30.639Z,2.51
2019-02-17T06:29:30.633Z,2.53
2019-02-17T06:30:30.650Z,2.63
2019-02-17T06:31:30.621Z,2.66
2019-02-17T06:32:30.578Z,2.70
2019-02-17T06:33:30.647Z,2.82
2019-02-17T06:34:30.627Z,2.79
2019-02-17T06:35:30.644Z,2.81
2019-02-17T06:36:30.668Z,2.84
2019-02-17T06:37:30.543Z,2.97
2019-02-17T06:38:30.569Z,2.91
2019-02-17T06:39:30.663Z,2.94
2019-02-17T06:40:30.611Z,3.02
2019-02-17T06:41:30.645Z,3.02
2019-02-17T06:42:30.533Z,3.03
2019-02-17T06:43:30.543Z,3.07
2019-02-17T06:44:30.642Z,3.06
2019-02-17T06:45:30.548Z,3.07
2019-02-17T06:46:30.502Z,3.13
2019-02-17T06:47:30.513Z,3.21
2019-02-17T06:48:30.497Z,3.27
2019-02-17T06:49:31.276Z,3.30
2019-02-17T06:52:50.593Z,3.39
2019-02-17T06:53:49.792Z,3.53
2019-02-17T06:56:10.937Z,4.00
2019-02-17T06:57:11.456Z,4.26
2019-02-17T06:58:10.600Z,4.37
2019-02-17T06:59:10.600Z,4.40
2019-02-17T07:00:12.587Z,4.42
2019-02-17T07:01:11.823Z,4.67
2019-02-17T07:02:10.834Z,4.76
2019-02-17T07:03:10.817Z,4.79
2019-02-17T07:04:11.430Z,4.94
2019-02-17T07:05:10.371Z,5.07
2019-02-17T07:06:10.359Z,5.73
2019-02-17T07:07:10.354Z,6.40
2019-02-17T07:09:04.878Z,7.42
2019-02-17T07:10:03.762Z,7.79
2019-02-17T07:11:57.902Z,8.86
2019-02-17T07:12:57.597Z,9.43
2019-02-17T07:14:51.322Z,10.07
2019-02-17T07:15:51.044Z,10.24
2019-02-17T07:17:44.738Z,10.86
2019-02-17T07:18:44.441Z,10.98
2019-02-17T07:20:38.112Z,11.31
2019-02-17T07:21:37.829Z,11.50
2019-02-17T07:23:30.990Z,11.80
2019-02-17T07:24:30.718Z,11.83
2019-02-17T07:26:24.371Z,11.64
2019-02-17T07:27:24.370Z,11.50
2019-02-17T07:29:17.220Z,11.65
2019-02-17T07:30:16.981Z,11.80
2019-02-17T07:32:10.703Z,12.19
2019-02-17T07:33:10.414Z,12.64
2019-02-17T07:35:03.656Z,12.39
2019-02-17T07:36:03.328Z,11.56
2019-02-17T07:37:56.967Z,10.15
2019-02-17T07:38:56.953Z,9.68
2019-02-17T07:40:50.964Z,8.90
2019-02-17T07:41:50.684Z,8.73
2019-02-17T07:43:44.030Z,7.97
2019-02-17T07:44:43.640Z,7.82
2019-02-17T07:46:36.686Z,7.71
2019-02-17T07:47:36.502Z,7.60
2019-02-17T07:49:30.313Z,7.35
2019-02-17T07:50:29.886Z,7.42
2019-02-17T07:52:24.316Z,7.38
2019-02-17T07:53:23.744Z,7.42
2019-02-17T07:55:16.502Z,7.40
2019-02-17T07:56:16.562Z,7.37
2019-02-17T07:58:09.391Z,7.37
2019-02-17T07:59:09.264Z,7.40
2019-02-17T08:01:02.778Z,7.50
2019-02-17T08:02:02.491Z,7.50
2019-02-17T08:03:55.586Z,7.52
2019-02-17T08:04:55.360Z,7.56
2019-02-17T08:06:49.356Z,7.71
2019-02-17T08:07:48.989Z,7.75
2019-02-17T08:09:42.624Z,7.82
2019-02-17T08:10:42.355Z,7.92
2019-02-17T08:12:35.953Z,8.03
2019-02-17T08:13:35.772Z,8.11
2019-02-17T08:15:28.929Z,8.58
2019-02-17T08:16:28.639Z,8.93
2019-02-17T08:18:21.784Z,9.86
2019-02-17T08:19:21.530Z,10.34
2019-02-17T08:21:14.608Z,11.11
2019-02-17T08:22:14.377Z,11.39
2019-02-17T08:24:07.512Z,11.93
2019-02-17T08:25:07.229Z,12.08
2019-02-17T08:27:00.636Z,12.21
2019-02-17T08:28:00.615Z,12.06
2019-02-17T08:29:54.202Z,11.65
2019-02-17T08:30:54.038Z,11.83
2019-02-17T08:32:47.486Z,12.05
2019-02-17T08:33:47.452Z,12.34
2019-02-17T08:34:47.433Z,12.77
2019-02-17T08:35:47.454Z,13.11
2019-02-17T08:36:47.452Z,13.49
2019-02-17T08:37:47.682Z,13.71
2019-02-17T08:38:47.449Z,14.10
2019-02-17T08:39:47.438Z,14.74
2019-02-17T08:40:47.442Z,15.19
2019-02-17T08:41:47.448Z,15.70
2019-02-17T08:42:47.443Z,15.92
2019-02-17T08:43:47.493Z,16.34
2019-02-17T08:44:47.449Z,16.25
2019-02-17T08:45:47.479Z,16.68
2019-02-17T08:46:47.568Z,17.03
2019-02-17T08:47:47.458Z,17.59
2019-02-17T08:48:47.461Z,17.92
2019-02-17T08:49:47.466Z,18.31
2019-02-17T08:50:47.472Z,18.58
2019-02-17T08:51:47.478Z,18.76
2019-02-17T08:52:47.479Z,18.92
2019-02-17T08:53:47.525Z,19.14
2019-02-17T08:54:47.488Z,19.31
2019-02-17T08:55:47.510Z,19.39
2019-02-17T08:56:47.500Z,19.42
2019-02-17T08:57:47.503Z,19.58
2019-02-17T08:58:47.519Z,19.88
2019-02-17T08:59:47.516Z,19.66
2019-02-17T09:00:47.520Z,19.21
2019-02-17T09:01:47.549Z,19.10
2019-02-17T09:02:47.543Z,19.57
2019-02-17T09:03:47.554Z,19.84
2019-02-17T09:04:47.559Z,20.43
2019-02-17T09:05:47.557Z,20.90
2019-02-17T09:06:47.562Z,21.45
2019-02-17T09:07:47.571Z,21.57
2019-02-17T09:08:47.578Z,21.90
2019-02-17T09:09:47.607Z,22.17
2019-02-17T09:10:47.597Z,22.35
2019-02-17T09:11:47.614Z,22.59
2019-02-17T09:12:47.632Z,22.32
2019-02-17T09:13:47.621Z,22.19
2019-02-17T09:14:47.628Z,21.98
2019-02-17T09:15:47.638Z,22.13
2019-02-17T09:16:47.647Z,22.39
2019-02-17T09:17:47.656Z,22.56
2019-02-17T09:18:47.666Z,22.87
2019-02-17T09:19:47.674Z,23.14
2019-02-17T09:20:47.688Z,23.61
2019-02-17T09:21:47.696Z,23.79
2019-02-17T09:22:47.708Z,23.75
2019-02-17T09:23:47.725Z,23.98
2019-02-17T09:24:47.994Z,24.22
2019-02-17T09:25:47.978Z,24.07
2019-02-17T09:26:47.751Z,23.75
2019-02-17T09:27:47.769Z,23.67
2019-02-17T09:28:48.117Z,23.98
2019-02-17T09:29:47.782Z,23.71
2019-02-17T09:30:48.000Z,23.89
2019-02-17T09:31:48.016Z,24.32
2019-02-17T09:32:48.014Z,24.68
2019-02-17T09:33:48.055Z,24.88
2019-02-17T09:34:47.844Z,25.01
2019-02-17T09:35:48.068Z,25.19
2019-02-17T09:36:47.867Z,25.07
2019-02-17T09:37:47.879Z,24.19
2019-02-17T09:38:47.893Z,23.14
2019-02-17T09:39:47.906Z,23.05
2019-02-17T09:40:48.126Z,23.04
2019-02-17T09:41:47.929Z,22.38
2019-02-17T09:42:47.946Z,22.34
2019-02-17T09:43:48.098Z,21.44
2019-02-17T09:44:48.013Z,21.42
2019-02-17T09:45:48.003Z,21.19
2019-02-17T09:46:48.013Z,21.67
2019-02-17T09:47:48.051Z,21.76
2019-02-17T09:48:48.012Z,22.17
2019-02-17T09:49:48.027Z,22.67
2019-02-17T09:50:48.038Z,22.54
2019-02-17T09:51:48.053Z,22.44
2019-02-17T09:52:48.063Z,22.62
2019-02-17T09:53:48.075Z,22.29
2019-02-17T09:54:48.089Z,22.68
2019-02-17T09:55:48.102Z,22.19
2019-02-17T09:56:48.121Z,21.38
2019-02-17T09:57:48.125Z,20.90
2019-02-17T09:58:48.361Z,20.81
2019-02-17T09:59:48.149Z,20.95
2019-02-17T10:00:48.160Z,20.69
2019-02-17T10:01:48.170Z,20.89
2019-02-17T10:02:48.185Z,20.50
2019-02-17T10:03:48.191Z,20.77
2019-02-17T10:04:48.205Z,21.05
2019-02-17T10:05:48.216Z,21.16
2019-02-17T10:06:48.275Z,21.54
2019-02-17T10:07:48.243Z,21.30
2019-02-17T10:08:48.248Z,20.99
2019-02-17T10:09:48.262Z,20.49
2019-02-17T10:10:48.272Z,19.95
2019-02-17T10:11:48.282Z,20.08
2019-02-17T10:12:48.302Z,19.60
2019-02-17T10:13:48.307Z,19.50
2019-02-17T10:14:48.562Z,19.47
2019-02-17T10:15:48.331Z,19.23
2019-02-17T10:16:48.356Z,19.46
2019-02-17T10:17:48.357Z,19.39
2019-02-17T10:18:48.373Z,19.42
2019-02-17T10:19:48.380Z,19.33
2019-02-17T10:20:48.398Z,19.20
2019-02-17T10:21:48.410Z,19.46
2019-02-17T10:22:48.419Z,19.58
2019-02-17T10:23:48.437Z,19.72
2019-02-17T10:24:48.461Z,19.75
2019-02-17T10:25:48.462Z,19.93
2019-02-17T10:26:48.473Z,19.75
2019-02-17T10:27:50.473Z,19.86
2019-02-17T10:28:48.500Z,19.84
2019-02-17T10:29:48.515Z,19.78
2019-02-17T10:30:48.529Z,19.73
2019-02-17T10:31:48.545Z,19.55
2019-02-17T10:32:48.555Z,19.47
2019-02-17T10:33:48.569Z,19.29
2019-02-17T10:34:48.585Z,19.42
2019-02-17T10:35:48.603Z,19.33
2019-02-17T10:36:50.492Z,19.18
2019-02-17T10:37:48.643Z,19.33
2019-02-17T10:38:48.637Z,19.38
2019-02-17T10:39:48.653Z,19.31
2019-02-17T10:40:48.695Z,19.20
2019-02-17T10:41:48.688Z,19.06
2019-02-17T10:42:48.708Z,19.17
2019-02-17T10:43:48.710Z,19.21
2019-02-17T10:44:55.947Z,19.35
2019-02-17T10:46:42.224Z,19.10
2019-02-17T10:47:42.214Z,19.11
2019-02-17T10:48:42.291Z,19.21
2019-02-17T10:49:49.441Z,19.47
2019-02-17T10:51:35.383Z,19.50
2019-02-17T10:52:35.395Z,19.47
2019-02-17T10:54:28.325Z,19.33
2019-02-17T10:55:28.305Z,19.24
2019-02-17T10:57:21.238Z,19.14
2019-02-17T10:58:21.240Z,19.21
2019-02-17T11:00:15.147Z,19.42
2019-02-17T11:01:15.109Z,19.48
2019-02-17T11:03:09.097Z,19.23
2019-02-17T11:04:08.620Z,19.13
2019-02-17T11:06:02.732Z,19.31
2019-02-17T11:07:01.577Z,19.47
2019-02-17T11:08:54.430Z,19.48
2019-02-17T11:09:54.430Z,19.63
2019-02-17T11:11:47.361Z,19.78
2019-02-17T11:12:47.343Z,19.70
2019-02-17T11:14:40.214Z,19.65
2019-02-17T11:15:40.215Z,19.48
2019-02-17T11:17:33.127Z,19.65
2019-02-17T11:18:33.083Z,19.72
2019-02-17T11:20:25.989Z,19.57
2019-02-17T11:21:25.984Z,19.61
2019-02-17T11:23:18.905Z,19.86
2019-02-17T11:24:18.904Z,19.76
2019-02-17T11:26:12.403Z,19.72
2019-02-17T11:27:12.366Z,19.42
2019-02-17T11:29:06.210Z,19.69
2019-02-17T11:30:06.116Z,19.78
2019-02-17T11:31:06.030Z,19.84
2019-02-17T11:32:06.143Z,19.97
2019-02-17T11:33:06.122Z,20.05
2019-02-17T11:34:05.973Z,20.20
2019-02-17T11:35:05.995Z,20.23
2019-02-17T11:36:06.116Z,20.35
2019-02-17T11:37:06.017Z,20.42
2019-02-17T11:38:06.065Z,20.34
2019-02-17T11:39:13.395Z,20.30
2019-02-17T11:40:59.658Z,20.10
2019-02-17T11:41:59.513Z,20.16
2019-02-17T11:43:55.969Z,19.65
2019-02-17T11:44:54.158Z,19.70
2019-02-17T11:45:55.916Z,19.36
2019-02-17T11:46:53.987Z,19.36
2019-02-17T11:47:54.093Z,19.36
2019-02-17T11:48:54.001Z,19.35
2019-02-17T11:50:02.973Z,19.51
2019-02-17T11:51:46.959Z,19.46
2019-02-17T11:52:46.917Z,19.42
2019-02-17T11:54:40.471Z,19.58
2019-02-17T11:55:40.410Z,19.60
2019-02-17T11:57:33.330Z,19.54
2019-02-17T11:58:33.340Z,19.23
2019-02-17T12:00:26.234Z,19.14
2019-02-17T12:01:26.246Z,18.97
2019-02-17T12:02:26.341Z,18.90
2019-02-17T12:03:26.198Z,18.82
2019-02-17T12:04:26.203Z,18.84
2019-02-17T12:05:26.210Z,18.79
2019-02-17T12:06:26.212Z,18.91
2019-02-17T12:07:26.217Z,19.10
2019-02-17T12:08:26.220Z,19.11
2019-02-17T12:09:26.229Z,19.32
2019-02-17T12:10:26.229Z,19.42
2019-02-17T12:11:26.234Z,19.51
2019-02-17T12:12:26.240Z,19.43
2019-02-17T12:13:26.244Z,19.43
2019-02-17T12:14:26.249Z,19.40
2019-02-17T12:15:26.254Z,19.48
2019-02-17T12:16:36.555Z,19.46
2019-02-17T12:17:26.274Z,19.57
2019-02-17T12:18:26.267Z,19.68
2019-02-17T12:19:26.277Z,19.72
2019-02-17T12:20:26.278Z,19.61
2019-02-17T12:21:26.281Z,19.50
2019-02-17T12:22:26.287Z,19.43
2019-02-17T12:23:26.294Z,19.47
2019-02-17T12:24:26.294Z,19.47
2019-02-17T12:25:26.299Z,19.58
2019-02-17T12:26:26.309Z,19.69
2019-02-17T12:27:26.312Z,19.66
2019-02-17T12:28:26.311Z,19.72
2019-02-17T12:29:26.319Z,19.60
2019-02-17T12:30:26.335Z,19.65
2019-02-17T12:31:26.328Z,19.76
2019-02-17T12:32:26.334Z,19.73
2019-02-17T12:33:26.341Z,19.55
2019-02-17T12:34:26.350Z,19.57
2019-02-17T12:35:26.347Z,19.46
2019-02-17T12:36:26.352Z,19.43
2019-02-17T12:37:26.356Z,19.47
2019-02-17T12:38:26.361Z,19.51
2019-02-17T12:39:26.364Z,19.51
2019-02-17T12:40:26.369Z,19.47
2019-02-17T12:41:26.374Z,19.47
2019-02-17T12:42:26.378Z,19.50
2019-02-17T12:43:26.384Z,19.40
2019-02-17T12:44:26.387Z,19.42
2019-02-17T12:45:26.392Z,19.43
2019-02-17T12:46:26.395Z,19.29
2019-02-17T12:47:26.402Z,19.20
2019-02-17T12:48:26.406Z,19.13
2019-02-17T12:49:26.410Z,18.99
2019-02-17T12:50:26.490Z,18.86
2019-02-17T12:51:26.452Z,18.86
2019-02-17T12:52:26.428Z,19.02
2019-02-17T12:53:28.266Z,19.01
2019-02-17T12:54:29.190Z,18.99
2019-02-17T12:55:26.441Z,19.05
2019-02-17T12:56:26.440Z,19.11
2019-02-17T12:57:26.445Z,19.14
2019-02-17T12:58:30.056Z,18.92
2019-02-17T12:59:26.462Z,18.87
2019-02-17T13:00:26.456Z,18.77
2019-02-17T13:01:26.464Z,18.74
2019-02-17T13:02:26.476Z,18.77
2019-02-17T13:03:28.787Z,18.50
2019-02-17T13:04:26.472Z,18.46
2019-02-17T13:05:26.477Z,18.29
2019-02-17T13:06:26.691Z,18.22
2019-02-17T13:07:26.486Z,18.24
2019-02-17T13:08:26.491Z,18.25
2019-02-17T13:09:33.907Z,18.29
2019-02-17T13:11:19.651Z,18.24
2019-02-17T13:12:19.517Z,18.27
2019-02-17T13:14:12.912Z,18.22
2019-02-17T13:15:12.845Z,18.18
2019-02-17T13:17:06.680Z,18.09
2019-02-17T13:18:08.367Z,18.13
2019-02-17T13:20:00.307Z,18.07
2019-02-17T13:21:02.080Z,18.18
2019-02-17T13:22:53.016Z,18.25
2019-02-17T13:24:00.096Z,18.27
2019-02-17T13:25:46.552Z,18.22
2019-02-17T13:26:46.358Z,18.22
2019-02-17T13:28:40.708Z,17.97
2019-02-17T13:29:40.345Z,17.87
2019-02-17T13:30:39.128Z,17.89
2019-02-17T13:31:39.705Z,17.95
2019-02-17T13:32:39.126Z,17.95
2019-02-17T13:33:39.583Z,17.87
2019-02-17T13:34:39.399Z,17.91
2019-02-17T13:35:39.129Z,17.92
2019-02-17T13:36:39.131Z,17.92
2019-02-17T13:37:39.124Z,17.89
2019-02-17T13:38:39.124Z,18.00
2019-02-17T13:39:39.127Z,18.12
2019-02-17T13:40:39.130Z,18.06
2019-02-17T13:41:39.152Z,17.95
2019-02-17T13:42:40.652Z,17.88
2019-02-17T13:43:39.144Z,17.94
2019-02-17T13:44:39.146Z,17.82
2019-02-17T13:45:39.145Z,17.87
2019-02-17T13:46:39.154Z,17.79
2019-02-17T13:47:39.185Z,17.76
2019-02-17T13:48:39.158Z,17.76
2019-02-17T13:49:39.164Z,17.63
2019-02-17T13:50:39.163Z,17.62
2019-02-17T13:51:39.167Z,17.46
2019-02-17T13:52:39.184Z,17.55
2019-02-17T13:53:39.204Z,17.55
2019-02-17T13:54:39.179Z,17.57
2019-02-17T13:55:39.180Z,17.62
2019-02-17T13:56:39.181Z,17.71
2019-02-17T13:57:39.186Z,17.67
2019-02-17T13:58:39.195Z,17.69
2019-02-17T13:59:39.199Z,17.59
2019-02-17T14:00:39.195Z,17.35
2019-02-17T14:01:39.199Z,17.10
2019-02-17T14:02:39.199Z,17.11
2019-02-17T14:03:48.267Z,17.10
2019-02-17T14:04:39.220Z,17.13
2019-02-17T14:05:39.210Z,17.10
2019-02-17T14:06:39.223Z,17.06
2019-02-17T14:07:39.217Z,17.08
2019-02-17T14:08:39.219Z,17.08
2019-02-17T14:09:39.224Z,17.03
2019-02-17T14:10:39.231Z,16.98
2019-02-17T14:11:39.227Z,17.06
2019-02-17T14:12:39.231Z,17.10
2019-02-17T14:13:39.235Z,17.03
2019-02-17T14:14:39.236Z,16.96
2019-02-17T14:15:39.237Z,16.98
2019-02-17T14:16:39.241Z,16.78
2019-02-17T14:17:39.252Z,16.77
2019-02-17T14:18:39.262Z,16.80
2019-02-17T14:19:39.256Z,16.81
2019-02-17T14:20:39.256Z,16.71
2019-02-17T14:21:39.274Z,16.55